createdAt,value
2022-10-30T00:00:11.065Z,82.51
2022-10-30T00:01:11.074Z,82.53
2022-10-30T00:02:11.212Z,82.40
2022-10-30T00:03:14.159Z,82.50
2022-10-30T00:04:11.072Z,82.52
2022-10-30T00:05:11.066Z,82.59
2022-10-30T00:06:11.141Z,82.57
2022-10-30T00:07:11.068Z,82.52
2022-10-30T00:08:11.071Z,82.49
2022-10-30T00:09:11.065Z,82.65
2022-10-30T00:10:11.066Z,82.56
2022-10-30T00:11:11.069Z,82.50
2022-10-30T00:12:11.063Z,82.37
2022-10-30T00:13:11.068Z,82.30
2022-10-30T00:14:11.074Z,82.12
2022-10-30T00:15:11.066Z,82.00
2022-10-30T00:16:11.070Z,82.07
2022-10-30T00:17:11.075Z,82.11
2022-10-30T00:18:11.068Z,82.11
2022-10-30T00:19:11.068Z,82.19
2022-10-30T00:20:11.066Z,82.18
2022-10-30T00:21:14.068Z,81.96
2022-10-30T00:23:13.179Z,82.05
2022-10-30T00:24:11.069Z,82.10
2022-10-30T00:25:11.062Z,82.31
2022-10-30T00:26:11.057Z,82.37
2022-10-30T00:27:11.064Z,82.19
2022-10-30T00:28:11.063Z,82.23
2022-10-30T00:29:11.063Z,82.12
2022-10-30T00:30:11.064Z,82.04
2022-10-30T00:31:11.064Z,82.02
2022-10-30T00:32:11.063Z,82.02
2022-10-30T00:33:11.066Z,82.03
2022-10-30T00:34:11.070Z,82.09
2022-10-30T00:35:11.060Z,82.24
2022-10-30T00:36:11.065Z,82.42
2022-10-30T00:37:11.069Z,82.58
2022-10-30T00:38:11.064Z,82.41
2022-10-30T00:39:11.062Z,82.36
2022-10-30T00:40:14.063Z,82.27
2022-10-30T00:41:19.063Z,82.23
2022-10-30T00:42:16.063Z,82.47
2022-10-30T00:43:22.061Z,82.83
2022-10-30T00:44:19.065Z,83.06
2022-10-30T00:45:13.092Z,83.10
2022-10-30T00:46:19.065Z,82.95
2022-10-30T00:47:18.062Z,83.06
2022-10-30T00:48:11.063Z,83.04
2022-10-30T00:49:16.065Z,82.95
2022-10-30T00:50:19.131Z,82.84
2022-10-30T00:51:12.065Z,82.67
2022-10-30T00:52:11.065Z,82.46
2022-10-30T00:53:14.066Z,82.31
2022-10-30T00:54:11.066Z,82.38
2022-10-30T00:55:14.065Z,82.30
2022-10-30T00:56:11.065Z,82.35
2022-10-30T00:57:11.072Z,82.27
2022-10-30T00:58:11.064Z,82.20
2022-10-30T00:59:12.071Z,82.17
2022-10-30T01:00:11.077Z,82.26
2022-10-30T01:01:14.269Z,82.16
2022-10-30T01:02:11.249Z,82.09
2022-10-30T01:03:11.066Z,81.97
2022-10-30T01:04:11.067Z,81.99
2022-10-30T01:05:12.069Z,82.54
2022-10-30T01:06:12.095Z,82.61
2022-10-30T01:07:15.068Z,82.61
2022-10-30T01:08:11.219Z,82.44
2022-10-30T01:09:11.120Z,82.49
2022-10-30T01:10:11.074Z,82.50
2022-10-30T01:11:11.068Z,82.72
2022-10-30T01:12:11.065Z,82.69
2022-10-30T01:13:11.066Z,82.88
2022-10-30T01:14:12.075Z,82.83
2022-10-30T01:15:11.066Z,82.92
2022-10-30T01:16:25.072Z,82.91
2022-10-30T01:17:19.070Z,83.02
2022-10-30T01:18:19.084Z,82.85
2022-10-30T01:19:19.068Z,82.84
2022-10-30T01:20:22.067Z,82.77
2022-10-30T01:21:19.055Z,82.75
2022-10-30T01:22:22.056Z,82.76
2022-10-30T01:23:19.063Z,82.72
2022-10-30T01:24:19.070Z,82.68
2022-10-30T01:25:19.058Z,82.75
2022-10-30T01:26:19.055Z,82.79
2022-10-30T01:27:19.055Z,82.62
2022-10-30T01:28:19.058Z,82.56
2022-10-30T01:29:19.067Z,82.76
2022-10-30T01:30:19.060Z,82.89
2022-10-30T01:31:22.061Z,82.76
2022-10-30T01:32:22.056Z,82.92
2022-10-30T01:33:19.055Z,82.90
2022-10-30T01:34:18.058Z,82.95
2022-10-30T01:35:17.069Z,82.96
2022-10-30T01:36:19.060Z,83.06
2022-10-30T01:37:19.058Z,83.20
2022-10-30T01:38:18.061Z,83.21
2022-10-30T01:39:16.062Z,83.32
2022-10-30T01:40:16.062Z,83.30
2022-10-30T01:41:11.061Z,83.24
2022-10-30T01:42:11.061Z,83.18
2022-10-30T01:43:11.064Z,83.28
2022-10-30T01:44:16.059Z,83.54
2022-10-30T01:45:14.061Z,83.66
2022-10-30T01:46:19.060Z,83.69
2022-10-30T01:47:22.067Z,83.71
2022-10-30T01:48:19.069Z,83.56
2022-10-30T01:49:19.103Z,83.45
2022-10-30T01:50:19.061Z,83.33
2022-10-30T01:51:22.057Z,83.33
2022-10-30T01:52:19.065Z,83.37
2022-10-30T01:53:19.068Z,83.39
2022-10-30T01:54:19.062Z,83.28
2022-10-30T01:55:19.063Z,83.36
2022-10-30T01:56:19.064Z,83.61
2022-10-30T01:57:18.063Z,83.61
2022-10-30T01:58:20.076Z,83.69
2022-10-30T01:59:23.063Z,83.69
2022-10-30T02:00:12.063Z,83.71
2022-10-30T02:01:11.148Z,83.73
2022-10-30T02:02:11.205Z,83.72
2022-10-30T02:03:11.077Z,83.68
2022-10-30T02:04:11.064Z,83.86
2022-10-30T02:05:12.085Z,83.82
2022-10-30T02:06:11.069Z,84.06
2022-10-30T02:07:11.069Z,84.00
2022-10-30T02:08:11.059Z,83.93
2022-10-30T02:09:11.070Z,83.78
2022-10-30T02:10:11.093Z,83.62
2022-10-30T02:11:11.062Z,83.55
2022-10-30T02:12:11.062Z,83.48
2022-10-30T02:13:11.076Z,83.27
2022-10-30T02:14:11.061Z,83.34
2022-10-30T02:15:11.065Z,83.22
2022-10-30T02:16:11.066Z,83.32
2022-10-30T02:17:11.062Z,83.42
2022-10-30T02:18:11.074Z,83.72
2022-10-30T02:19:11.074Z,83.62
2022-10-30T02:20:15.061Z,83.54
2022-10-30T02:21:11.058Z,83.56
2022-10-30T02:22:11.134Z,83.73
2022-10-30T02:23:11.081Z,83.74
2022-10-30T02:24:11.058Z,84.01
2022-10-30T02:25:11.057Z,83.82
2022-10-30T02:26:11.060Z,83.78
2022-10-30T02:27:11.057Z,83.46
2022-10-30T02:28:11.059Z,83.64
2022-10-30T02:29:11.066Z,83.83
2022-10-30T02:30:11.060Z,83.61
2022-10-30T02:31:11.056Z,83.57
2022-10-30T02:32:11.063Z,83.42
2022-10-30T02:33:11.151Z,83.43
2022-10-30T02:34:11.058Z,83.30
2022-10-30T02:35:11.062Z,83.17
2022-10-30T02:36:11.068Z,83.19
2022-10-30T02:37:11.057Z,83.00
2022-10-30T02:38:11.062Z,82.87
2022-10-30T02:39:11.073Z,83.08
2022-10-30T02:40:12.062Z,83.09
2022-10-30T02:41:11.057Z,83.11
2022-10-30T02:42:11.064Z,83.14
2022-10-30T02:43:11.062Z,83.07
2022-10-30T02:44:11.061Z,83.08
2022-10-30T02:45:11.067Z,82.94
2022-10-30T02:46:11.065Z,83.16
2022-10-30T02:47:11.062Z,83.33
2022-10-30T02:49:11.069Z,83.10
2022-10-30T02:50:11.066Z,83.16
2022-10-30T02:51:11.059Z,83.01
2022-10-30T02:52:11.066Z,83.21
2022-10-30T02:53:11.062Z,83.04
2022-10-30T02:54:11.061Z,82.93
2022-10-30T02:55:11.062Z,83.00
2022-10-30T02:56:11.062Z,82.76
2022-10-30T02:57:11.061Z,83.04
2022-10-30T02:58:11.065Z,82.89
2022-10-30T02:59:11.074Z,83.45
2022-10-30T03:00:11.064Z,83.80
2022-10-30T03:01:14.332Z,84.09
2022-10-30T03:02:11.241Z,84.18
2022-10-30T03:03:11.065Z,84.07
2022-10-30T03:04:11.062Z,84.00
2022-10-30T03:05:11.065Z,83.84
2022-10-30T03:06:11.063Z,83.99
2022-10-30T03:07:11.067Z,84.12
2022-10-30T03:08:11.065Z,83.86
2022-10-30T03:09:11.067Z,83.91
2022-10-30T03:10:11.068Z,83.90
2022-10-30T03:11:14.065Z,83.89
2022-10-30T03:12:11.103Z,83.79
2022-10-30T03:13:11.088Z,84.03
2022-10-30T03:14:11.062Z,84.14
2022-10-30T03:15:11.071Z,84.26
2022-10-30T03:16:11.068Z,83.96
2022-10-30T03:17:11.080Z,84.10
2022-10-30T03:18:11.066Z,84.25
2022-10-30T03:19:11.079Z,84.10
2022-10-30T03:20:11.064Z,83.86
2022-10-30T03:21:12.062Z,83.86
2022-10-30T03:22:11.066Z,83.89
2022-10-30T03:23:11.057Z,83.84
2022-10-30T03:24:11.060Z,83.96
2022-10-30T03:25:11.066Z,84.15
2022-10-30T03:26:11.063Z,84.17
2022-10-30T03:27:11.058Z,83.94
2022-10-30T03:28:11.057Z,83.98
2022-10-30T03:29:11.061Z,84.21
2022-10-30T03:30:11.057Z,84.24
2022-10-30T03:31:11.060Z,84.23
2022-10-30T03:32:13.208Z,84.55
2022-10-30T03:33:11.057Z,84.55
2022-10-30T03:34:11.058Z,84.56
2022-10-30T03:35:11.061Z,84.62
2022-10-30T03:36:11.060Z,85.03
2022-10-30T03:37:11.061Z,84.95
2022-10-30T03:38:11.068Z,84.71
2022-10-30T03:39:11.059Z,84.61
2022-10-30T03:40:11.061Z,84.41
2022-10-30T03:41:11.063Z,84.80
2022-10-30T03:42:11.060Z,84.89
2022-10-30T03:43:11.063Z,84.89
2022-10-30T03:44:11.071Z,84.73
2022-10-30T03:45:11.071Z,84.54
2022-10-30T03:46:11.062Z,84.47
2022-10-30T03:48:11.062Z,85.19
2022-10-30T03:49:11.062Z,85.33
2022-10-30T03:50:11.064Z,85.44
2022-10-30T03:51:11.064Z,85.28
2022-10-30T03:52:11.060Z,85.28
2022-10-30T03:53:11.063Z,85.16
2022-10-30T03:54:11.065Z,85.06
2022-10-30T03:55:11.066Z,85.09
2022-10-30T03:56:11.058Z,85.41
2022-10-30T03:57:11.065Z,85.32
2022-10-30T03:58:11.063Z,85.31
2022-10-30T03:59:11.062Z,85.17
2022-10-30T04:00:11.065Z,85.04
2022-10-30T04:01:11.142Z,84.97
2022-10-30T04:02:11.286Z,84.92
2022-10-30T04:03:11.066Z,85.22
2022-10-30T04:04:11.072Z,85.40
2022-10-30T04:05:11.065Z,85.29
2022-10-30T04:06:11.068Z,85.14
2022-10-30T04:07:11.067Z,85.02
2022-10-30T04:08:13.064Z,84.96
2022-10-30T04:09:11.063Z,84.68
2022-10-30T04:10:11.065Z,84.66
2022-10-30T04:11:11.195Z,84.65
2022-10-30T04:12:11.063Z,84.65
2022-10-30T04:13:11.068Z,84.79
2022-10-30T04:14:11.068Z,84.86
2022-10-30T04:15:11.066Z,84.89
2022-10-30T04:16:11.063Z,85.04
2022-10-30T04:18:12.067Z,84.78
2022-10-30T04:19:11.064Z,84.68
2022-10-30T04:20:11.066Z,84.66
2022-10-30T04:21:11.073Z,84.87
2022-10-30T04:22:11.061Z,85.01
2022-10-30T04:23:15.064Z,85.03
2022-10-30T04:24:11.072Z,85.50
2022-10-30T04:25:11.067Z,85.30
2022-10-30T04:26:11.060Z,85.15
2022-10-30T04:27:11.064Z,85.10
2022-10-30T04:28:11.065Z,85.03
2022-10-30T04:29:11.062Z,85.03
2022-10-30T04:30:11.064Z,84.98
2022-10-30T04:31:11.075Z,85.19
2022-10-30T04:32:11.077Z,85.19
2022-10-30T04:33:12.073Z,85.22
2022-10-30T04:34:11.068Z,85.23
2022-10-30T04:35:11.067Z,85.17
2022-10-30T04:36:11.062Z,84.94
2022-10-30T04:37:11.079Z,84.73
2022-10-30T04:38:14.080Z,85.07
2022-10-30T04:39:11.067Z,85.03
2022-10-30T04:40:11.067Z,84.94
2022-10-30T04:41:11.074Z,85.18
2022-10-30T04:42:11.067Z,85.18
2022-10-30T04:43:11.071Z,85.06
2022-10-30T04:44:11.076Z,85.18
2022-10-30T04:45:15.020Z,85.16
2022-10-30T04:46:11.068Z,85.17
2022-10-30T04:47:11.066Z,84.91
2022-10-30T04:48:12.069Z,84.94
2022-10-30T04:49:11.065Z,85.02
2022-10-30T04:50:11.068Z,85.07
2022-10-30T04:51:11.074Z,85.34
2022-10-30T04:52:11.066Z,85.43
2022-10-30T04:53:16.072Z,85.41
2022-10-30T04:54:11.071Z,85.20
2022-10-30T04:55:11.068Z,85.20
2022-10-30T04:56:11.068Z,85.14
2022-10-30T04:57:11.068Z,85.14
2022-10-30T04:58:11.069Z,85.12
2022-10-30T04:59:11.066Z,85.36
2022-10-30T05:00:11.068Z,85.62
2022-10-30T05:01:11.107Z,85.63
2022-10-30T05:02:11.389Z,85.67
2022-10-30T05:03:15.068Z,85.80
2022-10-30T05:04:11.075Z,85.83
2022-10-30T05:05:11.071Z,85.79
2022-10-30T05:06:19.072Z,85.62
2022-10-30T05:07:11.069Z,85.46
2022-10-30T05:08:11.076Z,85.51
2022-10-30T05:09:11.069Z,85.45
2022-10-30T05:10:12.071Z,85.31
2022-10-30T05:11:11.075Z,85.24
2022-10-30T05:12:11.073Z,85.34
2022-10-30T05:13:12.069Z,85.50
2022-10-30T05:14:11.073Z,85.35
2022-10-30T05:15:11.071Z,85.53
2022-10-30T05:16:11.067Z,85.61
2022-10-30T05:17:11.069Z,85.70
2022-10-30T05:18:11.078Z,85.96
2022-10-30T05:19:11.072Z,86.41
2022-10-30T05:20:14.738Z,86.28
2022-10-30T05:21:13.229Z,86.26
2022-10-30T05:22:11.063Z,86.30
2022-10-30T05:23:11.065Z,86.18
2022-10-30T05:24:11.072Z,86.23
2022-10-30T05:25:11.065Z,86.37
2022-10-30T05:26:11.060Z,86.27
2022-10-30T05:27:11.065Z,86.25
2022-10-30T05:28:11.076Z,86.57
2022-10-30T05:29:11.069Z,86.65
2022-10-30T05:30:11.064Z,86.69
2022-10-30T05:31:11.065Z,86.65
2022-10-30T05:32:11.177Z,86.71
2022-10-30T05:33:12.071Z,86.64
2022-10-30T05:34:11.070Z,86.51
2022-10-30T05:35:11.063Z,86.89
2022-10-30T05:37:11.072Z,86.70
2022-10-30T05:38:11.066Z,86.58
2022-10-30T05:39:11.069Z,86.62
2022-10-30T05:40:11.072Z,86.79
2022-10-30T05:41:11.068Z,86.68
2022-10-30T05:42:13.728Z,86.96
2022-10-30T05:43:11.066Z,86.98
2022-10-30T05:44:11.066Z,87.17
2022-10-30T05:45:11.064Z,87.30
2022-10-30T05:46:11.066Z,87.31
2022-10-30T05:47:11.077Z,87.29
2022-10-30T05:48:11.066Z,87.37
2022-10-30T05:49:11.069Z,87.46
2022-10-30T05:50:11.072Z,87.44
2022-10-30T05:51:12.072Z,87.49
2022-10-30T05:52:11.064Z,87.46
2022-10-30T05:53:11.068Z,87.42
2022-10-30T05:54:11.067Z,87.46
2022-10-30T05:55:11.064Z,88.03
2022-10-30T05:56:11.065Z,88.00
2022-10-30T05:57:11.068Z,88.05
2022-10-30T05:58:11.065Z,88.20
2022-10-30T05:59:11.067Z,87.92
2022-10-30T06:00:11.075Z,87.84
2022-10-30T06:01:11.068Z,87.92
2022-10-30T06:02:11.123Z,88.04
2022-10-30T06:03:12.078Z,87.95
2022-10-30T06:04:11.068Z,88.03
2022-10-30T06:05:11.064Z,88.15
2022-10-30T06:06:11.078Z,87.99
2022-10-30T06:07:11.069Z,88.18
2022-10-30T06:08:11.067Z,88.29
2022-10-30T06:09:11.067Z,88.31
2022-10-30T06:10:11.070Z,88.21
2022-10-30T06:11:11.069Z,88.09
2022-10-30T06:12:11.069Z,88.06
2022-10-30T06:13:11.072Z,87.88
2022-10-30T06:14:11.071Z,88.00
2022-10-30T06:15:11.070Z,88.02
2022-10-30T06:16:11.077Z,87.80
2022-10-30T06:17:11.069Z,87.72
2022-10-30T06:18:11.071Z,87.68
2022-10-30T06:19:15.461Z,87.82
2022-10-30T06:20:13.210Z,87.70
2022-10-30T06:21:11.059Z,87.92
2022-10-30T06:22:11.060Z,87.91
2022-10-30T06:23:11.062Z,87.98
2022-10-30T06:24:11.062Z,87.92
2022-10-30T06:25:11.059Z,87.88
2022-10-30T06:26:11.064Z,87.80
2022-10-30T06:27:11.062Z,87.80
2022-10-30T06:28:11.063Z,87.77
2022-10-30T06:29:11.069Z,88.08
2022-10-30T06:30:11.064Z,87.96
2022-10-30T06:31:11.121Z,87.71
2022-10-30T06:32:11.064Z,87.64
2022-10-30T06:33:11.073Z,87.53
2022-10-30T06:34:11.064Z,87.49
2022-10-30T06:35:11.062Z,87.61
2022-10-30T06:36:11.064Z,87.61
2022-10-30T06:37:11.118Z,87.87
2022-10-30T06:38:11.062Z,87.90
2022-10-30T06:39:11.065Z,87.79
2022-10-30T06:40:11.063Z,87.90
2022-10-30T06:41:11.061Z,87.82
2022-10-30T06:42:11.067Z,87.85
2022-10-30T06:43:11.062Z,87.74
2022-10-30T06:44:11.063Z,87.67
2022-10-30T06:45:11.071Z,87.57
2022-10-30T06:46:11.071Z,87.44
2022-10-30T06:47:11.065Z,87.32
2022-10-30T06:48:11.071Z,87.15
2022-10-30T06:49:11.064Z,87.03
2022-10-30T06:50:11.060Z,86.85
2022-10-30T06:51:11.067Z,86.73
2022-10-30T06:52:11.065Z,86.76
2022-10-30T06:53:11.064Z,86.78
2022-10-30T06:54:11.065Z,86.98
2022-10-30T06:55:11.068Z,87.17
2022-10-30T06:56:11.063Z,87.14
2022-10-30T06:57:11.065Z,86.99
2022-10-30T06:58:11.073Z,87.24
2022-10-30T06:59:11.067Z,87.31
2022-10-30T07:00:11.068Z,87.42
2022-10-30T07:01:11.073Z,87.27
2022-10-30T07:02:11.429Z,87.30
2022-10-30T07:03:12.061Z,87.14
2022-10-30T07:04:11.065Z,87.03
2022-10-30T07:05:11.067Z,86.92
2022-10-30T07:06:11.068Z,86.87
2022-10-30T07:07:11.074Z,86.75
2022-10-30T07:08:11.076Z,86.75
2022-10-30T07:09:11.068Z,86.92
2022-10-30T07:10:11.066Z,86.91
2022-10-30T07:11:11.068Z,86.92
2022-10-30T07:12:11.067Z,86.81
2022-10-30T07:13:11.065Z,86.73
2022-10-30T07:14:11.067Z,86.86
2022-10-30T07:15:11.069Z,86.68
2022-10-30T07:16:11.066Z,86.73
2022-10-30T07:17:11.070Z,86.53
2022-10-30T07:18:11.075Z,86.47
2022-10-30T07:19:11.066Z,86.54
2022-10-30T07:20:11.069Z,86.40
2022-10-30T07:21:11.062Z,86.35
2022-10-30T07:22:11.061Z,86.18
2022-10-30T07:23:11.057Z,86.39
2022-10-30T07:24:11.060Z,86.34
2022-10-30T07:25:11.063Z,86.28
2022-10-30T07:26:11.061Z,86.28
2022-10-30T07:27:11.060Z,86.20
2022-10-30T07:28:11.069Z,86.31
2022-10-30T07:29:11.060Z,86.46
2022-10-30T07:30:11.123Z,86.37
2022-10-30T07:31:11.069Z,86.35
2022-10-30T07:32:12.062Z,86.29
2022-10-30T07:33:11.059Z,86.39
2022-10-30T07:34:11.064Z,86.62
2022-10-30T07:35:11.063Z,86.53
2022-10-30T07:36:11.062Z,86.50
2022-10-30T07:37:11.062Z,86.30
2022-10-30T07:38:12.070Z,86.31
2022-10-30T07:39:11.061Z,86.36
2022-10-30T07:40:12.983Z,86.39
2022-10-30T07:41:11.074Z,86.31
2022-10-30T07:42:11.065Z,86.37
2022-10-30T07:43:11.059Z,86.36
2022-10-30T07:44:11.063Z,86.44
2022-10-30T07:46:11.067Z,86.40
2022-10-30T07:47:11.062Z,86.36
2022-10-30T07:48:11.069Z,86.35
2022-10-30T07:49:11.091Z,86.29
2022-10-30T07:50:11.073Z,86.11
2022-10-30T07:51:11.070Z,86.05
2022-10-30T07:52:16.224Z,86.08
2022-10-30T07:53:13.859Z,86.13
2022-10-30T07:54:11.067Z,86.02
2022-10-30T07:55:11.069Z,86.19
2022-10-30T07:56:11.065Z,86.39
2022-10-30T07:57:11.064Z,86.37
2022-10-30T07:58:11.067Z,86.31
2022-10-30T07:59:11.064Z,86.21
2022-10-30T08:00:11.069Z,86.17
2022-10-30T08:01:11.120Z,86.04
2022-10-30T08:02:11.273Z,86.12
2022-10-30T08:03:11.068Z,86.08
2022-10-30T08:04:11.074Z,86.07
2022-10-30T08:05:11.067Z,86.02
2022-10-30T08:06:11.071Z,85.97
2022-10-30T08:07:11.068Z,85.99
2022-10-30T08:08:11.066Z,85.89
2022-10-30T08:09:11.065Z,85.90
2022-10-30T08:10:11.067Z,86.08
2022-10-30T08:11:11.068Z,86.32
2022-10-30T08:12:11.065Z,86.23
2022-10-30T08:13:11.069Z,86.02
2022-10-30T08:14:11.077Z,85.93
2022-10-30T08:15:11.066Z,85.92
2022-10-30T08:16:11.071Z,85.83
2022-10-30T08:17:11.076Z,85.90
2022-10-30T08:18:11.068Z,85.83
2022-10-30T08:19:11.064Z,85.76
2022-10-30T08:20:11.072Z,85.80
2022-10-30T08:21:11.060Z,85.81
2022-10-30T08:22:13.058Z,86.03
2022-10-30T08:23:11.062Z,85.95
2022-10-30T08:24:11.067Z,86.09
2022-10-30T08:25:11.061Z,85.95
2022-10-30T08:26:11.056Z,85.93
2022-10-30T08:27:11.064Z,85.86
2022-10-30T08:28:11.061Z,85.75
2022-10-30T08:29:11.058Z,85.75
2022-10-30T08:30:11.062Z,85.74
2022-10-30T08:31:11.060Z,85.77
2022-10-30T08:32:11.055Z,85.72
2022-10-30T08:33:13.059Z,85.66
2022-10-30T08:34:11.063Z,85.51
2022-10-30T08:35:12.591Z,85.62
2022-10-30T08:36:11.065Z,85.48
2022-10-30T08:37:11.069Z,85.41
2022-10-30T08:38:11.059Z,85.47
2022-10-30T08:39:11.065Z,85.51
2022-10-30T08:40:11.070Z,85.39
2022-10-30T08:41:11.062Z,85.45
2022-10-30T08:42:11.061Z,85.23
2022-10-30T08:43:11.061Z,85.28
2022-10-30T08:44:11.062Z,85.24
2022-10-30T08:45:11.064Z,85.22
2022-10-30T08:46:11.060Z,85.15
2022-10-30T08:47:11.063Z,85.12
2022-10-30T08:48:11.060Z,84.94
2022-10-30T08:49:11.064Z,84.92
2022-10-30T08:50:11.144Z,85.03
2022-10-30T08:51:11.063Z,85.10
2022-10-30T08:52:11.064Z,84.93
2022-10-30T08:53:13.062Z,84.97
2022-10-30T08:54:11.063Z,84.96
2022-10-30T08:55:11.063Z,84.88
2022-10-30T08:56:11.066Z,84.73
2022-10-30T08:57:11.067Z,84.90
2022-10-30T08:58:11.065Z,84.81
2022-10-30T08:59:11.069Z,84.65
2022-10-30T09:00:11.068Z,84.58
2022-10-30T09:01:11.196Z,84.55
2022-10-30T09:02:11.230Z,84.64
2022-10-30T09:03:11.066Z,84.66
2022-10-30T09:04:11.064Z,84.62
2022-10-30T09:05:11.071Z,84.50
2022-10-30T09:06:11.064Z,84.33
2022-10-30T09:07:12.976Z,84.29
2022-10-30T09:08:11.065Z,84.45
2022-10-30T09:09:11.073Z,84.38
2022-10-30T09:10:11.067Z,84.40
2022-10-30T09:11:11.063Z,84.35
2022-10-30T09:12:11.069Z,84.20
2022-10-30T09:13:11.066Z,84.13
2022-10-30T09:14:11.064Z,84.19
2022-10-30T09:15:11.066Z,84.16
2022-10-30T09:16:11.067Z,83.95
2022-10-30T09:17:11.067Z,84.13
2022-10-30T09:18:11.066Z,84.08
2022-10-30T09:19:16.130Z,83.96
2022-10-30T09:20:13.109Z,83.74
2022-10-30T09:21:11.062Z,83.57
2022-10-30T09:22:11.068Z,83.43
2022-10-30T09:23:11.060Z,83.51
2022-10-30T09:24:11.058Z,83.42
2022-10-30T09:25:11.067Z,83.13
2022-10-30T09:26:12.062Z,83.04
2022-10-30T09:27:11.057Z,83.23
2022-10-30T09:28:11.062Z,83.19
2022-10-30T09:29:11.063Z,82.77
2022-10-30T09:30:11.059Z,82.98
2022-10-30T09:31:11.062Z,82.87
2022-10-30T09:32:13.066Z,82.71
2022-10-30T09:33:11.060Z,82.76
2022-10-30T09:34:11.063Z,82.55
2022-10-30T09:35:11.066Z,82.51
2022-10-30T09:36:11.064Z,82.43
2022-10-30T09:37:11.068Z,82.25
2022-10-30T09:38:11.069Z,82.16
2022-10-30T09:39:11.065Z,82.16
2022-10-30T09:40:16.070Z,82.17
2022-10-30T09:41:19.071Z,82.08
2022-10-30T09:42:19.064Z,81.89
2022-10-30T09:43:19.062Z,81.80
2022-10-30T09:44:19.059Z,81.80
2022-10-30T09:45:29.285Z,81.70
2022-10-30T09:46:21.097Z,81.54
2022-10-30T09:47:23.320Z,81.36
2022-10-30T09:48:21.064Z,81.29
2022-10-30T09:49:21.066Z,81.12
2022-10-30T09:50:21.063Z,81.04
2022-10-30T09:51:19.065Z,81.21
2022-10-30T09:52:21.064Z,81.21
2022-10-30T09:53:21.071Z,80.82
2022-10-30T09:54:19.066Z,80.77
2022-10-30T09:55:19.065Z,80.73
2022-10-30T09:56:17.068Z,80.64
2022-10-30T09:57:19.065Z,80.64
2022-10-30T09:58:21.071Z,80.56
2022-10-30T09:59:21.066Z,80.72
2022-10-30T10:00:15.067Z,80.44
2022-10-30T10:01:19.183Z,80.52
2022-10-30T10:02:19.292Z,80.45
2022-10-30T10:03:19.073Z,80.45
2022-10-30T10:04:23.902Z,80.32
2022-10-30T10:05:19.135Z,80.35
2022-10-30T10:06:18.068Z,80.34
2022-10-30T10:07:19.066Z,80.41
2022-10-30T10:08:14.073Z,80.38
2022-10-30T10:09:17.068Z,80.21
2022-10-30T10:10:19.137Z,80.01
2022-10-30T10:11:22.068Z,79.84
2022-10-30T10:12:18.070Z,79.91
2022-10-30T10:13:21.070Z,79.79
2022-10-30T10:14:21.065Z,79.60
2022-10-30T10:15:16.069Z,79.64
2022-10-30T10:16:17.068Z,79.33
2022-10-30T10:17:13.074Z,79.73
2022-10-30T10:18:19.172Z,79.63
2022-10-30T10:19:20.067Z,79.40
2022-10-30T10:20:21.146Z,79.39
2022-10-30T10:21:23.066Z,79.13
2022-10-30T10:22:19.070Z,79.29
2022-10-30T10:23:19.065Z,79.13
2022-10-30T10:24:20.003Z,79.07
2022-10-30T10:25:15.059Z,79.05
2022-10-30T10:26:19.062Z,78.89
2022-10-30T10:27:21.069Z,78.88
2022-10-30T10:28:19.063Z,78.77
2022-10-30T10:29:19.061Z,78.67
2022-10-30T10:30:19.063Z,78.36
2022-10-30T10:31:21.067Z,78.26
2022-10-30T10:32:19.070Z,78.13
2022-10-30T10:33:19.089Z,78.19
2022-10-30T10:34:21.066Z,78.00
2022-10-30T10:35:19.062Z,77.93
2022-10-30T10:36:19.067Z,77.91
2022-10-30T10:37:19.065Z,77.77
2022-10-30T10:38:19.074Z,77.67
2022-10-30T10:39:21.065Z,77.55
2022-10-30T10:40:19.064Z,77.31
2022-10-30T10:41:21.061Z,77.63
2022-10-30T10:42:19.065Z,77.51
2022-10-30T10:43:19.066Z,77.28
2022-10-30T10:44:19.066Z,77.26
2022-10-30T10:45:20.067Z,77.21
2022-10-30T10:46:21.064Z,77.36
2022-10-30T10:47:21.069Z,77.27
2022-10-30T10:48:19.070Z,77.10
2022-10-30T10:49:23.076Z,76.88
2022-10-30T10:50:19.078Z,76.99
2022-10-30T10:51:17.067Z,77.02
2022-10-30T10:52:19.065Z,76.95
2022-10-30T10:53:20.067Z,77.04
2022-10-30T10:54:16.066Z,77.08
2022-10-30T10:55:18.078Z,76.99
2022-10-30T10:56:11.068Z,76.85
2022-10-30T10:57:18.063Z,76.71
2022-10-30T10:58:19.066Z,76.89
2022-10-30T10:59:20.078Z,76.70
2022-10-30T11:00:16.068Z,76.49
2022-10-30T11:01:17.219Z,76.48
2022-10-30T11:02:19.221Z,76.44
2022-10-30T11:03:19.080Z,76.60
2022-10-30T11:04:18.071Z,76.35
2022-10-30T11:05:19.067Z,76.02
2022-10-30T11:06:19.065Z,75.90
2022-10-30T11:07:21.068Z,75.89
2022-10-30T11:08:18.076Z,75.79
2022-10-30T11:09:17.077Z,75.76
2022-10-30T11:10:13.069Z,75.49
2022-10-30T11:11:11.068Z,75.52
2022-10-30T11:12:11.068Z,75.52
2022-10-30T11:13:13.069Z,75.35
2022-10-30T11:14:18.067Z,75.30
2022-10-30T11:15:19.071Z,75.47
2022-10-30T11:16:21.070Z,75.28
2022-10-30T11:17:21.079Z,75.00
2022-10-30T11:18:11.087Z,75.19
2022-10-30T11:19:11.070Z,75.30
2022-10-30T11:20:17.075Z,74.85
2022-10-30T11:21:13.066Z,74.60
2022-10-30T11:22:21.061Z,74.83
2022-10-30T11:23:19.061Z,74.91
2022-10-30T11:24:19.063Z,74.62
2022-10-30T11:25:19.063Z,74.94
2022-10-30T11:26:19.066Z,74.87
2022-10-30T11:27:19.075Z,74.87
2022-10-30T11:28:19.064Z,74.73
2022-10-30T11:29:16.061Z,74.70
2022-10-30T11:30:18.063Z,74.59
2022-10-30T11:31:19.070Z,74.53
2022-10-30T11:32:17.065Z,74.42
2022-10-30T11:33:19.061Z,74.58
2022-10-30T11:34:19.088Z,74.63
2022-10-30T11:35:15.066Z,74.59
2022-10-30T11:36:15.780Z,74.70
2022-10-30T11:37:19.065Z,74.85
2022-10-30T11:38:19.076Z,74.71
2022-10-30T11:39:17.066Z,74.72
2022-10-30T11:40:17.070Z,74.62
2022-10-30T11:41:11.073Z,74.43
2022-10-30T11:42:15.065Z,74.50
2022-10-30T11:43:15.066Z,74.11
2022-10-30T11:44:11.068Z,74.02
2022-10-30T11:45:19.077Z,73.54
2022-10-30T11:46:17.070Z,73.20
2022-10-30T11:47:11.064Z,73.39
2022-10-30T11:48:21.262Z,73.26
2022-10-30T11:49:19.068Z,73.19
2022-10-30T11:50:19.154Z,72.95
2022-10-30T11:51:11.080Z,72.90
2022-10-30T11:52:11.065Z,72.64
2022-10-30T11:53:18.074Z,72.56
2022-10-30T11:54:19.064Z,72.41
2022-10-30T11:55:18.075Z,72.22
2022-10-30T11:56:19.069Z,72.25
2022-10-30T11:57:21.076Z,72.06
2022-10-30T11:58:15.069Z,72.00
2022-10-30T11:59:18.067Z,71.69
2022-10-30T12:00:19.197Z,71.74
2022-10-30T12:01:19.091Z,71.56
2022-10-30T12:02:19.209Z,71.42
2022-10-30T12:03:19.068Z,71.08
2022-10-30T12:04:15.068Z,70.67
2022-10-30T12:05:19.073Z,70.62
2022-10-30T12:06:21.077Z,70.65
2022-10-30T12:07:19.070Z,70.57
2022-10-30T12:08:18.067Z,70.31
2022-10-30T12:09:18.080Z,70.48
2022-10-30T12:10:19.070Z,70.12
2022-10-30T12:11:11.076Z,70.12
2022-10-30T12:12:18.069Z,70.06
2022-10-30T12:13:15.067Z,69.66
2022-10-30T12:14:19.074Z,69.75
2022-10-30T12:15:20.075Z,69.86
2022-10-30T12:16:17.070Z,69.78
2022-10-30T12:17:14.068Z,69.85
2022-10-30T12:18:19.142Z,69.62
2022-10-30T12:19:12.078Z,69.94
2022-10-30T12:20:15.086Z,69.79
2022-10-30T12:21:11.060Z,70.04
2022-10-30T12:22:11.060Z,70.01
2022-10-30T12:23:17.061Z,70.16
2022-10-30T12:24:20.057Z,70.19
2022-10-30T12:25:21.061Z,70.26
2022-10-30T12:26:11.061Z,70.33
2022-10-30T12:27:19.720Z,70.54
2022-10-30T12:28:20.239Z,70.70
2022-10-30T12:29:15.058Z,70.89
2022-10-30T12:30:18.064Z,71.68
2022-10-30T12:31:19.070Z,72.17
2022-10-30T12:32:19.062Z,72.49
2022-10-30T12:33:20.060Z,72.94
2022-10-30T12:34:21.060Z,73.46
2022-10-30T12:35:21.064Z,74.03
2022-10-30T12:36:16.069Z,74.22
2022-10-30T12:37:21.063Z,74.18
2022-10-30T12:38:21.061Z,74.68
2022-10-30T12:39:21.062Z,75.20
2022-10-30T12:40:16.228Z,75.57
2022-10-30T12:41:18.065Z,76.04
2022-10-30T12:42:17.071Z,76.56
2022-10-30T12:43:19.061Z,76.43
2022-10-30T12:44:19.060Z,76.40
2022-10-30T12:45:21.061Z,77.14
2022-10-30T12:46:19.073Z,77.32
2022-10-30T12:47:18.063Z,77.44
2022-10-30T12:48:21.062Z,77.35
2022-10-30T12:49:21.063Z,77.59
2022-10-30T12:50:18.139Z,77.55
2022-10-30T12:51:19.764Z,77.77
2022-10-30T12:52:23.085Z,77.58
2022-10-30T12:53:21.066Z,77.94
2022-10-30T12:54:19.063Z,77.71
2022-10-30T12:55:19.060Z,77.89
2022-10-30T12:56:19.067Z,77.77
2022-10-30T12:57:15.067Z,77.73
2022-10-30T12:58:19.065Z,78.17